createdAt,value
2019-05-17T00:02:09.526Z,91.10
2019-05-17T00:04:40.191Z,91.30
2019-05-17T00:07:11.341Z,91.20
2019-05-17T00:09:42.025Z,91.00
2019-05-17T00:12:12.613Z,91.10
2019-05-17T00:14:43.506Z,91.10
2019-05-17T00:17:14.030Z,90.60
2019-05-17T00:19:46.501Z,90.40
2019-05-17T00:22:17.065Z,90.70
2019-05-17T00:24:47.860Z,91.20
2019-05-17T00:27:18.531Z,91.40
2019-05-17T00:29:49.550Z,91.30
2019-05-17T00:32:20.143Z,91.30
2019-05-17T00:34:50.979Z,91.40
2019-05-17T00:37:21.505Z,91.40
2019-05-17T00:39:52.078Z,91.30
2019-05-17T00:42:22.845Z,91.40
2019-05-17T00:44:53.338Z,91.70
2019-05-17T00:47:23.931Z,91.50
2019-05-17T00:49:56.838Z,91.60
2019-05-17T00:52:27.351Z,91.50
2019-05-17T00:54:58.091Z,91.50
2019-05-17T00:57:28.588Z,91.90
2019-05-17T00:59:59.213Z,91.60
2019-05-17T01:02:29.859Z,91.80
2019-05-17T01:05:00.442Z,91.70
2019-05-17T01:07:30.938Z,91.80
2019-05-17T01:10:01.854Z,92.10
2019-05-17T01:12:33.494Z,91.60
2019-05-17T01:15:09.821Z,91.70
2019-05-17T01:17:40.461Z,91.70
2019-05-17T01:20:11.534Z,91.80
2019-05-17T01:22:42.103Z,91.80
2019-05-17T01:25:13.439Z,91.60
2019-05-17T01:27:44.073Z,91.60
2019-05-17T01:30:14.730Z,91.90
2019-05-17T01:32:46.409Z,91.60
2019-05-17T01:35:17.510Z,91.40
2019-05-17T01:38:08.377Z,91.70
2019-05-17T01:40:39.149Z,91.80
2019-05-17T01:43:09.718Z,91.80
2019-05-17T01:45:40.387Z,91.90
2019-05-17T01:48:10.982Z,92.10
2019-05-17T01:50:41.789Z,92.00
2019-05-17T01:53:13.650Z,92.10
2019-05-17T01:55:46.482Z,92.00
2019-05-17T01:58:16.815Z,91.80
2019-05-17T02:00:47.455Z,92.00
2019-05-17T02:03:18.321Z,91.80
2019-05-17T02:05:49.078Z,92.00
2019-05-17T02:08:19.813Z,92.00
2019-05-17T02:10:50.500Z,92.00
2019-05-17T02:13:21.205Z,92.10
2019-05-17T02:15:51.854Z,92.30
2019-05-17T02:18:22.758Z,92.20
2019-05-17T02:20:53.326Z,92.20
2019-05-17T02:23:26.852Z,92.30
2019-05-17T02:25:57.113Z,92.60
2019-05-17T02:28:29.088Z,92.70
2019-05-17T02:31:03.432Z,92.50
2019-05-17T02:33:33.928Z,92.30
2019-05-17T02:36:04.639Z,92.40
2019-05-17T02:38:35.302Z,92.50
2019-05-17T02:41:06.064Z,92.30
2019-05-17T02:43:36.985Z,92.30
2019-05-17T02:46:07.667Z,92.50
2019-05-17T02:48:38.627Z,92.60
2019-05-17T02:51:12.757Z,92.40
2019-05-17T02:53:42.907Z,92.90
2019-05-17T02:56:13.955Z,92.70
2019-05-17T02:58:44.639Z,92.50
2019-05-17T03:01:15.440Z,92.10
2019-05-17T03:03:46.019Z,92.40
2019-05-17T03:06:17.197Z,92.00
2019-05-17T03:08:47.951Z,92.20
2019-05-17T03:11:22.439Z,92.80
2019-05-17T03:13:52.615Z,92.80
2019-05-17T03:16:23.887Z,92.30
2019-05-17T03:18:54.981Z,92.40
2019-05-17T03:21:25.568Z,92.60
2019-05-17T03:23:56.319Z,92.90
2019-05-17T03:26:26.843Z,92.70
2019-05-17T03:28:57.452Z,92.70
2019-05-17T03:31:34.307Z,93.00
2019-05-17T03:34:06.460Z,92.80
2019-05-17T03:36:36.259Z,92.80
2019-05-17T03:39:07.675Z,92.60
2019-05-17T03:41:38.323Z,92.70
2019-05-17T03:44:08.986Z,92.90
2019-05-17T03:46:42.360Z,92.90
2019-05-17T03:49:13.146Z,93.10
2019-05-17T03:51:44.260Z,93.50
2019-05-17T03:54:15.032Z,93.30
2019-05-17T03:56:47.065Z,93.40
2019-05-17T03:59:17.663Z,93.50
2019-05-17T04:01:48.604Z,93.20
2019-05-17T04:04:22.662Z,93.20
2019-05-17T04:06:52.595Z,93.40
2019-05-17T04:09:23.478Z,93.60
2019-05-17T04:11:54.393Z,93.80
2019-05-17T04:14:25.001Z,93.90
2019-05-17T04:16:55.563Z,93.30
2019-05-17T04:19:26.227Z,93.50
2019-05-17T04:21:56.871Z,93.80
2019-05-17T04:24:27.624Z,94.00
2019-05-17T04:26:58.323Z,93.90
2019-05-17T04:29:28.831Z,93.90
2019-05-17T04:31:59.591Z,93.80
2019-05-17T04:34:33.259Z,93.70
2019-05-17T04:37:04.321Z,93.20
2019-05-17T04:39:34.793Z,93.40
2019-05-17T04:42:05.667Z,93.20
2019-05-17T04:44:36.986Z,93.10
2019-05-17T04:47:07.719Z,93.20
2019-05-17T04:49:38.359Z,93.30
2019-05-17T04:52:10.034Z,93.40
2019-05-17T04:54:42.439Z,93.50
2019-05-17T04:57:13.327Z,93.30
2019-05-17T04:59:44.376Z,93.40
2019-05-17T05:02:15.418Z,93.30
2019-05-17T05:04:46.871Z,93.20
2019-05-17T05:07:17.569Z,93.30
2019-05-17T05:09:48.547Z,93.40
2019-05-17T05:12:19.073Z,93.60
2019-05-17T05:14:52.257Z,93.60
2019-05-17T05:17:23.432Z,93.60
2019-05-17T05:19:54.109Z,93.70
2019-05-17T05:22:24.712Z,93.60
2019-05-17T05:24:55.230Z,93.60
2019-05-17T05:27:26.058Z,93.50
2019-05-17T05:29:56.930Z,93.20
2019-05-17T05:32:27.704Z,93.10
2019-05-17T05:34:58.578Z,92.90
2019-05-17T05:37:29.393Z,92.90
2019-05-17T05:40:02.113Z,92.60
2019-05-17T05:42:32.724Z,92.20
2019-05-17T05:45:03.703Z,92.20
2019-05-17T05:47:34.322Z,91.90
2019-05-17T05:50:06.894Z,92.00
2019-05-17T05:52:37.458Z,91.60
2019-05-17T05:55:08.745Z,91.10
2019-05-17T05:57:41.637Z,90.80
2019-05-17T06:00:13.929Z,90.80
2019-05-17T06:02:44.570Z,90.60
2019-05-17T06:05:17.360Z,90.40
2019-05-17T06:07:48.047Z,90.10
2019-05-17T06:10:18.713Z,90.10
2019-05-17T06:12:51.626Z,89.80
2019-05-17T06:15:22.322Z,90.20
2019-05-17T06:17:52.898Z,89.60
2019-05-17T06:20:23.878Z,89.40
2019-05-17T06:22:54.601Z,89.70
2019-05-17T06:25:25.494Z,89.50
2019-05-17T06:27:56.153Z,88.60
2019-05-17T06:30:26.797Z,88.40
2019-05-17T06:32:57.329Z,87.60
2019-05-17T06:35:28.215Z,86.70
2019-05-17T06:37:58.814Z,87.10
2019-05-17T06:40:29.511Z,86.60
2019-05-17T06:43:03.981Z,86.50
2019-05-17T06:45:32.649Z,86.30
2019-05-17T06:48:04.362Z,86.20
2019-05-17T06:50:35.053Z,85.30
2019-05-17T06:53:05.737Z,85.10
2019-05-17T06:55:36.382Z,83.50
2019-05-17T06:58:07.167Z,82.80
2019-05-17T07:00:40.255Z,82.90
2019-05-17T07:03:10.181Z,81.80
2019-05-17T07:05:42.425Z,81.80
2019-05-17T07:08:12.928Z,80.70
2019-05-17T07:10:43.598Z,79.70
2019-05-17T07:13:14.290Z,79.70
2019-05-17T07:15:47.965Z,79.20
2019-05-17T07:18:19.367Z,78.20
2019-05-17T07:20:50.273Z,78.30
2019-05-17T07:23:21.051Z,78.50
2019-05-17T07:25:51.578Z,76.90
2019-05-17T07:28:22.084Z,78.00
2019-05-17T07:30:52.685Z,79.10
2019-05-17T07:33:23.646Z,77.00
2019-05-17T07:35:54.486Z,77.80
2019-05-17T07:38:25.178Z,77.90
2019-05-17T07:40:55.714Z,77.20
2019-05-17T07:43:26.433Z,76.10
2019-05-17T07:45:56.966Z,76.40
2019-05-17T07:48:27.579Z,76.60
2019-05-17T07:50:59.408Z,76.00
2019-05-17T07:53:30.828Z,76.70
2019-05-17T07:56:01.506Z,76.00
2019-05-17T07:58:32.225Z,75.80
2019-05-17T08:01:02.869Z,75.10
2019-05-17T08:03:33.582Z,75.50
2019-05-17T08:06:04.238Z,74.80
2019-05-17T08:08:34.947Z,73.90
2019-05-17T08:11:05.533Z,74.70
2019-05-17T08:13:36.132Z,74.30
2019-05-17T08:16:07.185Z,74.80
2019-05-17T08:18:40.111Z,73.00
2019-05-17T08:21:10.577Z,72.30
2019-05-17T08:23:41.543Z,73.30
2019-05-17T08:26:12.305Z,72.10
2019-05-17T08:28:42.846Z,73.30
2019-05-17T08:31:13.543Z,73.10
2019-05-17T08:33:44.149Z,72.60
2019-05-17T08:36:14.663Z,71.20
2019-05-17T08:38:45.547Z,71.10
2019-05-17T08:41:17.621Z,71.00
2019-05-17T08:43:51.176Z,71.70
2019-05-17T08:46:20.934Z,70.80
2019-05-17T08:48:51.610Z,71.30
2019-05-17T08:51:22.357Z,69.90
2019-05-17T08:53:53.026Z,70.40
2019-05-17T08:56:23.610Z,69.80
2019-05-17T08:58:55.217Z,69.20
2019-05-17T09:01:25.863Z,68.90
2019-05-17T09:03:56.510Z,68.30
2019-05-17T09:06:29.171Z,69.20
2019-05-17T09:09:00.803Z,68.90
2019-05-17T09:11:33.413Z,67.30
2019-05-17T09:14:04.557Z,67.40
2019-05-17T09:16:35.490Z,65.70
2019-05-17T09:19:06.168Z,65.00
2019-05-17T09:21:36.838Z,65.30
2019-05-17T09:24:10.246Z,64.80
2019-05-17T09:26:40.250Z,65.20
2019-05-17T09:29:11.000Z,63.00
2019-05-17T09:31:42.983Z,61.70
2019-05-17T09:34:13.633Z,63.60
2019-05-17T09:36:44.563Z,62.30
2019-05-17T09:39:15.226Z,61.30
2019-05-17T09:41:45.937Z,61.00
2019-05-17T09:44:16.689Z,59.80
2019-05-17T09:46:47.305Z,58.10
2019-05-17T09:49:19.296Z,58.70
2019-05-17T09:51:51.080Z,58.30
2019-05-17T09:54:37.118Z,58.60
2019-05-17T09:56:54.355Z,58.20
2019-05-17T09:59:25.019Z,58.60
2019-05-17T10:01:55.914Z,59.80
2019-05-17T10:04:26.466Z,58.20
2019-05-17T10:06:59.256Z,57.20
2019-05-17T10:09:29.160Z,55.60
2019-05-17T10:12:00.062Z,56.40
2019-05-17T10:14:31.388Z,55.50
2019-05-17T10:17:02.200Z,56.60
2019-05-17T10:19:32.946Z,52.80
2019-05-17T10:22:03.703Z,54.40
2019-05-17T10:24:38.826Z,53.40
2019-05-17T10:27:06.857Z,52.60
2019-05-17T10:29:39.349Z,51.90
2019-05-17T10:32:10.463Z,52.40
2019-05-17T10:34:42.331Z,52.20
2019-05-17T10:37:14.052Z,51.10
2019-05-17T10:39:45.607Z,51.30
2019-05-17T10:42:16.270Z,54.10
2019-05-17T10:44:47.913Z,52.40
2019-05-17T10:47:20.022Z,52.30
2019-05-17T10:49:50.735Z,52.60
2019-05-17T10:52:21.437Z,51.60
2019-05-17T10:54:52.001Z,53.20
2019-05-17T10:57:22.623Z,53.40
2019-05-17T10:59:53.595Z,51.40
2019-05-17T11:02:24.271Z,52.30
2019-05-17T11:04:55.268Z,52.20
2019-05-17T11:07:26.215Z,51.70
2019-05-17T11:09:56.775Z,51.70
2019-05-17T11:12:28.508Z,52.60
2019-05-17T11:15:10.398Z,52.70
2019-05-17T11:17:31.608Z,51.20
2019-05-17T11:20:02.345Z,53.10
2019-05-17T11:22:33.166Z,52.20
2019-05-17T11:25:06.139Z,53.80
2019-05-17T11:27:36.869Z,53.00
2019-05-17T11:30:08.569Z,52.00
2019-05-17T11:32:39.262Z,52.80
2019-05-17T11:35:10.219Z,53.30
2019-05-17T11:37:40.773Z,53.20
2019-05-17T11:40:11.814Z,51.30
2019-05-17T11:42:43.789Z,51.60
2019-05-17T11:45:27.452Z,50.70
2019-05-17T11:47:48.023Z,52.30
2019-05-17T11:50:18.998Z,52.30
2019-05-17T11:52:49.552Z,51.90
2019-05-17T11:55:20.318Z,51.90
2019-05-17T11:57:50.954Z,50.50
2019-05-17T12:00:23.083Z,51.70
2019-05-17T12:02:53.710Z,51.00
2019-05-17T12:05:24.620Z,52.20
2019-05-17T12:07:55.121Z,50.10
2019-05-17T12:10:25.935Z,50.30
2019-05-17T12:12:56.908Z,49.80
2019-05-17T12:15:42.241Z,50.90
2019-05-17T12:18:00.131Z,49.10
2019-05-17T12:20:30.761Z,48.70
2019-05-17T12:23:01.558Z,48.50
2019-05-17T12:25:32.231Z,48.20
2019-05-17T12:28:03.859Z,50.40
2019-05-17T12:30:34.495Z,50.90
2019-05-17T12:33:05.275Z,51.00
2019-05-17T12:35:35.974Z,48.90
2019-05-17T12:38:06.939Z,47.80
2019-05-17T12:40:37.615Z,48.20
2019-05-17T12:43:08.204Z,48.20
2019-05-17T12:45:39.735Z,45.00
2019-05-17T12:48:10.917Z,42.70
2019-05-17T12:50:41.630Z,44.50
2019-05-17T12:53:12.324Z,45.50
2019-05-17T12:55:44.355Z,47.30
2019-05-17T12:58:15.003Z,47.50
2019-05-17T13:00:45.567Z,47.00
2019-05-17T13:03:16.162Z,47.50
2019-05-17T13:05:47.086Z,48.00
2019-05-17T13:08:17.923Z,46.10
2019-05-17T13:10:48.439Z,46.00
2019-05-17T13:13:19.078Z,45.20
2019-05-17T13:15:49.938Z,44.20
2019-05-17T13:18:20.498Z,44.50
2019-05-17T13:20:51.162Z,44.80
2019-05-17T13:23:22.332Z,44.20
2019-05-17T13:25:53.884Z,43.00
2019-05-17T13:28:24.739Z,44.70
2019-05-17T13:30:55.721Z,45.40
2019-05-17T13:33:29.117Z,42.80
2019-05-17T13:35:58.654Z,43.80
2019-05-17T13:38:29.202Z,43.30
2019-05-17T13:40:59.790Z,43.60
2019-05-17T13:43:30.545Z,44.30
2019-05-17T13:46:01.603Z,43.80
2019-05-17T13:48:33.563Z,42.70
2019-05-17T13:51:04.336Z,41.20
2019-05-17T13:53:34.971Z,43.10
2019-05-17T13:56:05.631Z,46.00
2019-05-17T13:58:36.155Z,44.20
2019-05-17T14:01:06.830Z,42.60
2019-05-17T14:03:37.540Z,43.20
2019-05-17T14:06:08.271Z,44.10
2019-05-17T14:08:38.802Z,45.30
2019-05-17T14:11:09.585Z,45.60
2019-05-17T14:13:40.102Z,47.50
2019-05-17T14:16:10.594Z,47.50
2019-05-17T14:18:41.264Z,47.60
2019-05-17T14:21:12.178Z,48.60
2019-05-17T14:23:43.083Z,47.20
2019-05-17T14:26:14.112Z,48.20
2019-05-17T14:28:45.062Z,48.30
2019-05-17T14:31:15.643Z,48.30
2019-05-17T14:33:46.225Z,47.60
2019-05-17T14:36:16.865Z,48.30
2019-05-17T14:38:47.607Z,49.20
2019-05-17T14:41:18.306Z,47.00
2019-05-17T14:43:49.283Z,48.20
2019-05-17T14:46:20.191Z,48.70
2019-05-17T14:48:50.712Z,47.90
2019-05-17T14:51:22.421Z,47.90
2019-05-17T14:53:53.333Z,47.10
2019-05-17T14:56:25.411Z,46.60
2019-05-17T14:58:56.227Z,47.40
2019-05-17T15:01:26.927Z,46.70
2019-05-17T15:03:57.426Z,47.10
2019-05-17T15:06:28.057Z,46.60
2019-05-17T15:08:58.621Z,46.40
2019-05-17T15:11:29.333Z,46.90
2019-05-17T15:13:59.898Z,47.10
2019-05-17T15:16:30.510Z,46.40
2019-05-17T15:19:01.107Z,47.60
2019-05-17T15:21:32.029Z,45.00
2019-05-17T15:24:03.971Z,46.60
2019-05-17T15:26:35.754Z,45.80
2019-05-17T15:29:07.647Z,46.40
2019-05-17T15:31:38.416Z,45.70
2019-05-17T15:34:09.053Z,45.80
2019-05-17T15:36:39.614Z,45.10
2019-05-17T15:39:10.262Z,45.90
2019-05-17T15:41:40.937Z,47.30
2019-05-17T15:44:11.522Z,46.20
2019-05-17T15:46:42.159Z,47.00
2019-05-17T15:49:12.782Z,47.30
2019-05-17T15:51:43.524Z,48.20
2019-05-17T15:54:14.229Z,46.30
2019-05-17T15:56:44.731Z,45.90
2019-05-17T15:59:15.333Z,46.20
2019-05-17T16:01:46.287Z,46.40
2019-05-17T16:04:16.880Z,47.10
2019-05-17T16:06:47.520Z,46.60
2019-05-17T16:09:18.404Z,45.10
2019-05-17T16:11:48.995Z,46.60
2019-05-17T16:14:19.650Z,46.30
2019-05-17T16:16:50.180Z,47.70
2019-05-17T16:19:20.820Z,47.20
2019-05-17T16:21:51.501Z,47.60
2019-05-17T16:24:21.997Z,47.30
2019-05-17T16:26:52.591Z,47.20
2019-05-17T16:29:23.079Z,48.00
2019-05-17T16:31:53.594Z,48.30
2019-05-17T16:34:24.399Z,46.90
2019-05-17T16:36:54.916Z,47.90
2019-05-17T16:39:25.474Z,47.40
2019-05-17T16:41:56.558Z,47.80
2019-05-17T16:44:27.107Z,48.30
2019-05-17T16:46:57.765Z,48.60
2019-05-17T16:49:28.645Z,49.20
2019-05-17T16:51:59.442Z,49.50
2019-05-17T16:54:30.416Z,49.20
2019-05-17T16:57:01.118Z,49.40
2019-05-17T16:59:31.687Z,50.40
2019-05-17T17:02:02.471Z,50.00
2019-05-17T17:04:33.080Z,50.20
2019-05-17T17:07:03.739Z,50.80
2019-05-17T17:09:34.967Z,49.90
2019-05-17T17:12:05.954Z,50.80
2019-05-17T17:14:36.651Z,49.80
2019-05-17T17:17:11.427Z,50.40
2019-05-17T17:19:39.563Z,49.90
2019-05-17T17:22:10.055Z,49.30
2019-05-17T17:24:40.709Z,50.10
2019-05-17T17:27:11.355Z,49.80
2019-05-17T17:29:42.128Z,50.70
2019-05-17T17:32:21.186Z,51.80
2019-05-17T17:34:45.270Z,52.50
2019-05-17T17:37:15.835Z,53.00
2019-05-17T17:39:46.942Z,53.50
2019-05-17T17:42:17.887Z,53.80
2019-05-17T17:44:48.493Z,53.70
2019-05-17T17:47:22.430Z,54.30
2019-05-17T17:49:53.908Z,54.90
2019-05-17T17:52:25.540Z,54.50
2019-05-17T17:54:56.317Z,54.30
2019-05-17T17:57:26.950Z,54.50
2019-05-17T17:59:57.684Z,54.50
2019-05-17T18:02:28.421Z,54.70
2019-05-17T18:04:59.147Z,55.30
2019-05-17T18:07:29.703Z,54.80
2019-05-17T18:10:00.218Z,55.30
2019-05-17T18:12:30.816Z,55.00
2019-05-17T18:15:04.421Z,55.10
2019-05-17T18:17:39.192Z,55.20
2019-05-17T18:20:06.370Z,55.50
2019-05-17T18:22:37.241Z,55.60
2019-05-17T18:25:08.078Z,55.90
2019-05-17T18:27:38.667Z,56.10
2019-05-17T18:30:09.737Z,56.70
2019-05-17T18:32:40.509Z,57.00
2019-05-17T18:35:11.357Z,57.50
2019-05-17T18:37:42.016Z,57.50
2019-05-17T18:40:13.213Z,57.90
2019-05-17T18:42:44.019Z,58.30
2019-05-17T18:45:15.513Z,58.60
2019-05-17T18:47:46.135Z,59.20
2019-05-17T18:50:16.891Z,60.20
2019-05-17T18:52:47.557Z,59.80
2019-05-17T18:55:18.285Z,59.90
2019-05-17T18:57:49.490Z,59.80
2019-05-17T19:00:20.350Z,61.00
2019-05-17T19:02:51.002Z,60.70
2019-05-17T19:05:21.751Z,61.20
2019-05-17T19:07:52.407Z,60.80
2019-05-17T19:10:23.063Z,60.80
2019-05-17T19:12:53.576Z,61.80
2019-05-17T19:15:24.343Z,62.20
2019-05-17T19:17:54.929Z,62.80
2019-05-17T19:20:25.576Z,62.70
2019-05-17T19:22:56.538Z,63.20
2019-05-17T19:25:27.103Z,63.70
2019-05-17T19:27:57.873Z,64.20
2019-05-17T19:30:28.503Z,64.00
2019-05-17T19:32:59.458Z,63.80
2019-05-17T19:35:30.211Z,64.70
2019-05-17T19:38:00.832Z,65.60
2019-05-17T19:40:31.475Z,65.50
2019-05-17T19:43:02.404Z,66.10
2019-05-17T19:45:33.038Z,65.80
2019-05-17T19:48:03.731Z,65.40
2019-05-17T19:50:34.370Z,65.80
2019-05-17T19:53:05.214Z,66.00
2019-05-17T19:55:35.775Z,66.20
2019-05-17T19:58:06.556Z,66.10
2019-05-17T20:00:37.155Z,67.10
2019-05-17T20:03:07.996Z,66.70
2019-05-17T20:05:38.563Z,67.10
2019-05-17T20:08:23.079Z,66.60
2019-05-17T20:10:53.714Z,66.80
2019-05-17T20:13:25.146Z,66.70
2019-05-17T20:15:56.960Z,66.80
2019-05-17T20:18:28.243Z,66.80
2019-05-17T20:20:58.799Z,66.90
2019-05-17T20:23:29.779Z,66.90
2019-05-17T20:26:01.374Z,67.20
2019-05-17T20:28:32.123Z,67.40
2019-05-17T20:31:02.738Z,67.30
2019-05-17T20:33:33.359Z,67.70
2019-05-17T20:36:04.135Z,68.10
2019-05-17T20:38:34.767Z,68.50
2019-05-17T20:41:05.615Z,69.00
2019-05-17T20:43:36.255Z,69.40
2019-05-17T20:46:06.981Z,69.80
2019-05-17T20:48:37.483Z,70.60
2019-05-17T20:51:08.138Z,71.50
2019-05-17T20:53:38.642Z,71.40
2019-05-17T20:56:09.306Z,71.50
2019-05-17T20:58:40.050Z,72.20
2019-05-17T21:01:10.745Z,71.70
2019-05-17T21:03:41.759Z,72.20
2019-05-17T21:06:12.413Z,73.00
2019-05-17T21:08:45.867Z,73.40
2019-05-17T21:11:15.598Z,74.00
2019-05-17T21:13:46.380Z,74.20
2019-05-17T21:16:16.985Z,76.10
2019-05-17T21:18:47.657Z,75.20
2019-05-17T21:21:18.231Z,75.00
2019-05-17T21:23:48.839Z,75.40
2019-05-17T21:26:19.545Z,75.50
2019-05-17T21:28:50.161Z,75.70
2019-05-17T21:31:20.754Z,75.70
2019-05-17T21:33:51.346Z,75.60
2019-05-17T21:36:21.953Z,75.70
2019-05-17T21:38:52.882Z,75.30
2019-05-17T21:41:23.514Z,75.50
2019-05-17T21:43:54.218Z,75.70
2019-05-17T21:46:24.715Z,76.20
2019-05-17T21:48:55.615Z,76.30
2019-05-17T21:51:26.114Z,76.30
2019-05-17T21:53:56.750Z,76.50
2019-05-17T21:56:27.331Z,77.70
2019-05-17T21:58:57.862Z,77.90
2019-05-17T22:01:30.186Z,78.10
2019-05-17T22:04:01.041Z,78.60
2019-05-17T22:06:31.746Z,78.60
2019-05-17T22:09:02.702Z,78.60
2019-05-17T22:11:36.013Z,78.40
2019-05-17T22:14:06.796Z,78.10
2019-05-17T22:16:37.446Z,78.00
2019-05-17T22:19:08.190Z,78.60
2019-05-17T22:21:39.221Z,78.30
2019-05-17T22:24:09.907Z,79.40
2019-05-17T22:26:40.419Z,78.20
2019-05-17T22:29:11.065Z,78.10
2019-05-17T22:31:41.652Z,78.80
2019-05-17T22:34:12.225Z,79.40
2019-05-17T22:36:42.827Z,79.70
2019-05-17T22:39:13.409Z,79.80
2019-05-17T22:41:46.013Z,80.00
2019-05-17T22:44:16.570Z,80.90
2019-05-17T22:46:47.232Z,81.10
2019-05-17T22:49:17.844Z,80.90
2019-05-17T22:51:48.733Z,81.40
2019-05-17T22:54:19.665Z,82.30
2019-05-17T22:56:50.371Z,81.00
2019-05-17T22:59:21.054Z,81.40
2019-05-17T23:01:52.098Z,82.40
2019-05-17T23:04:22.902Z,82.40
2019-05-17T23:06:53.967Z,83.10
2019-05-17T23:09:24.587Z,81.70
2019-05-17T23:11:55.233Z,81.00
2019-05-17T23:14:25.749Z,82.20
2019-05-17T23:16:56.246Z,82.80
2019-05-17T23:19:26.869Z,82.50
2019-05-17T23:21:57.374Z,83.20
2019-05-17T23:24:27.997Z,83.80
2019-05-17T23:26:58.671Z,83.50
2019-05-17T23:29:29.762Z,83.30
2019-05-17T23:32:00.320Z,84.30
2019-05-17T23:34:31.017Z,85.00
2019-05-17T23:37:01.946Z,85.50
2019-05-17T23:39:32.537Z,86.20
2019-05-17T23:42:03.216Z,85.50
2019-05-17T23:44:34.054Z,85.20
2019-05-17T23:47:07.401Z,85.90
2019-05-17T23:49:37.299Z,86.30
2019-05-17T23:52:07.821Z,86.30
2019-05-17T23:54:38.668Z,87.10
2019-05-17T23:57:09.421Z,86.60
2019-05-17T23:59:39.877Z,85.10
